sensor_id;sensor_type;location;lat;lon;timestamp;pressure;altitude;pressure_sealevel;temperature;humidity
13800;BME280;6971;50.028;9.258;2023-07-29T00:04:45;98882.47;;;15.16;100.00
13800;BME280;6971;50.028;9.258;2023-07-29T00:09:45;98886.47;;;15.10;100.00
13800;BME280;6971;50.028;9.258;2023-07-29T00:14:46;98887.78;;;15.04;100.00
13800;BME280;6971;50.028;9.258;2023-07-29T00:19:46;98894.19;;;15.01;100.00
13800;BME280;6971;50.028;9.258;2023-07-29T00:24:52;98898.63;;;15.12;100.00
13800;BME280;6971;50.028;9.258;2023-07-29T00:29:54;98889.75;;;15.02;100.00
13800;BME280;6971;50.028;9.258;2023-07-29T00:34:55;98893.22;;;15.03;100.00
13800;BME280;6971;50.028;9.258;2023-07-29T00:39:56;98889.00;;;15.00;100.00
13800;BME280;6971;50.028;9.258;2023-07-29T00:44:56;98882.59;;;15.03;100.00
13800;BME280;6971;50.028;9.258;2023-07-29T00:49:57;98868.38;;;15.04;100.00
13800;BME280;6971;50.028;9.258;2023-07-29T00:54:57;98862.06;;;15.16;100.00
13800;BME280;6971;50.028;9.258;2023-07-29T00:59:59;98858.47;;;15.06;100.00
13800;BME280;6971;50.028;9.258;2023-07-29T01:05:00;98860.38;;;15.15;100.00
13800;BME280;6971;50.028;9.258;2023-07-29T01:15:28;98838.16;;;15.16;100.00
13800;BME280;6971;50.028;9.258;2023-07-29T01:20:35;98841.56;;;15.18;100.00
13800;BME280;6971;50.028;9.258;2023-07-29T01:25:37;98832.03;;;15.16;100.00
13800;BME280;6971;50.028;9.258;2023-07-29T01:30:40;98833.94;;;15.25;100.00
13800;BME280;6971;50.028;9.258;2023-07-29T01:35:55;98831.41;;;15.23;100.00
13800;BME280;6971;50.028;9.258;2023-07-29T01:40:58;98828.97;;;15.20;100.00
13800;BME280;6971;50.028;9.258;2023-07-29T01:46:01;98818.00;;;15.25;100.00
13800;BME280;6971;50.028;9.258;2023-07-29T01:51:03;98811.13;;;15.22;100.00
13800;BME280;6971;50.028;9.258;2023-07-29T01:56:03;98821.69;;;15.34;100.00
13800;BME280;6971;50.028;9.258;2023-07-29T02:01:04;98808.84;;;15.39;100.00
13800;BME280;6971;50.028;9.258;2023-07-29T02:06:04;98805.50;;;15.37;100.00
13800;BME280;6971;50.028;9.258;2023-07-29T02:11:05;98789.56;;;15.37;100.00
13800;BME280;6971;50.028;9.258;2023-07-29T02:16:05;98798.25;;;15.39;100.00
13800;BME280;6971;50.028;9.258;2023-07-29T02:21:05;98791.13;;;15.39;100.00
13800;BME280;6971;50.028;9.258;2023-07-29T02:26:06;98800.59;;;15.53;100.00
13800;BME280;6971;50.028;9.258;2023-07-29T02:31:20;98783.47;;;15.46;100.00
13800;BME280;6971;50.028;9.258;2023-07-29T02:36:21;98782.25;;;15.50;100.00
13800;BME280;6971;50.028;9.258;2023-07-29T02:41:22;98768.72;;;15.53;100.00
13800;BME280;6971;50.028;9.258;2023-07-29T02:46:22;98775.16;;;15.51;100.00
13800;BME280;6971;50.028;9.258;2023-07-29T02:51:22;98773.25;;;15.63;100.00
13800;BME280;6971;50.028;9.258;2023-07-29T02:56:23;98773.13;;;15.64;100.00
13800;BME280;6971;50.028;9.258;2023-07-29T03:01:23;98762.09;;;15.69;100.00
13800;BME280;6971;50.028;9.258;2023-07-29T03:06:28;98767.53;;;15.68;100.00
13800;BME280;6971;50.028;9.258;2023-07-29T03:11:28;98756.25;;;15.75;100.00
13800;BME280;6971;50.028;9.258;2023-07-29T03:16:29;98757.22;;;15.74;100.00
13800;BME280;6971;50.028;9.258;2023-07-29T03:21:29;98751.19;;;15.72;100.00
13800;BME280;6971;50.028;9.258;2023-07-29T03:26:29;98756.78;;;15.69;100.00
13800;BME280;6971;50.028;9.258;2023-07-29T03:31:30;98758.19;;;15.73;100.00
13800;BME280;6971;50.028;9.258;2023-07-29T03:36:30;98745.09;;;15.82;100.00
13800;BME280;6971;50.028;9.258;2023-07-29T03:41:31;98753.91;;;15.82;100.00
13800;BME280;6971;50.028;9.258;2023-07-29T03:46:31;98751.56;;;15.89;100.00
13800;BME280;6971;50.028;9.258;2023-07-29T03:51:31;98734.84;;;15.98;100.00
13800;BME280;6971;50.028;9.258;2023-07-29T03:56:32;98737.81;;;16.15;100.00
13800;BME280;6971;50.028;9.258;2023-07-29T04:01:32;98726.22;;;16.16;100.00
13800;BME280;6971;50.028;9.258;2023-07-29T04:06:33;98727.91;;;16.17;100.00
13800;BME280;6971;50.028;9.258;2023-07-29T04:11:33;98735.16;;;16.15;100.00
13800;BME280;6971;50.028;9.258;2023-07-29T04:16:34;98734.91;;;16.28;100.00
13800;BME280;6971;50.028;9.258;2023-07-29T04:21:34;98734.34;;;16.24;100.00
13800;BME280;6971;50.028;9.258;2023-07-29T04:26:34;98721.50;;;16.29;100.00
13800;BME280;6971;50.028;9.258;2023-07-29T04:31:34;98727.06;;;16.26;100.00
13800;BME280;6971;50.028;9.258;2023-07-29T04:36:36;98722.88;;;16.43;100.00
13800;BME280;6971;50.028;9.258;2023-07-29T04:41:36;98720.22;;;16.43;100.00
13800;BME280;6971;50.028;9.258;2023-07-29T04:46:36;98727.09;;;16.56;100.00
13800;BME280;6971;50.028;9.258;2023-07-29T04:51:37;98724.88;;;16.61;100.00
13800;BME280;6971;50.028;9.258;2023-07-29T04:56:37;98714.09;;;16.63;100.00
13800;BME280;6971;50.028;9.258;2023-07-29T05:01:37;98720.38;;;16.81;100.00
13800;BME280;6971;50.028;9.258;2023-07-29T05:06:38;98719.28;;;16.84;100.00
13800;BME280;6971;50.028;9.258;2023-07-29T05:11:38;98713.69;;;16.77;100.00
13800;BME280;6971;50.028;9.258;2023-07-29T05:16:39;98694.34;;;16.85;100.00
13800;BME280;6971;50.028;9.258;2023-07-29T05:21:39;98700.63;;;16.94;100.00
13800;BME280;6971;50.028;9.258;2023-07-29T05:26:39;98710.88;;;16.89;100.00
13800;BME280;6971;50.028;9.258;2023-07-29T05:31:40;98721.91;;;16.94;100.00
13800;BME280;6971;50.028;9.258;2023-07-29T05:36:40;98739.00;;;17.01;100.00
13800;BME280;6971;50.028;9.258;2023-07-29T05:41:41;98726.56;;;17.02;100.00
13800;BME280;6971;50.028;9.258;2023-07-29T05:46:42;98744.66;;;17.18;100.00
13800;BME280;6971;50.028;9.258;2023-07-29T05:51:42;98754.31;;;17.19;100.00
13800;BME280;6971;50.028;9.258;2023-07-29T05:56:43;98761.69;;;17.35;100.00
13800;BME280;6971;50.028;9.258;2023-07-29T06:01:43;98781.59;;;17.41;100.00
13800;BME280;6971;50.028;9.258;2023-07-29T06:06:44;98769.38;;;17.48;100.00
13800;BME280;6971;50.028;9.258;2023-07-29T06:11:44;98764.75;;;17.60;100.00
13800;BME280;6971;50.028;9.258;2023-07-29T06:16:44;98758.50;;;17.79;100.00
13800;BME280;6971;50.028;9.258;2023-07-29T06:21:45;98761.81;;;17.91;100.00
13800;BME280;6971;50.028;9.258;2023-07-29T06:26:45;98757.13;;;18.03;100.00
13800;BME280;6971;50.028;9.258;2023-07-29T06:31:46;98763.84;;;18.07;100.00
13800;BME280;6971;50.028;9.258;2023-07-29T06:36:47;98760.78;;;18.02;100.00
13800;BME280;6971;50.028;9.258;2023-07-29T06:41:47;98752.47;;;18.05;100.00
13800;BME280;6971;50.028;9.258;2023-07-29T06:46:48;98756.75;;;17.98;100.00
13800;BME280;6971;50.028;9.258;2023-07-29T06:51:48;98758.13;;;18.02;100.00
13800;BME280;6971;50.028;9.258;2023-07-29T06:56:49;98760.41;;;17.97;100.00
13800;BME280;6971;50.028;9.258;2023-07-29T07:01:49;98753.19;;;17.79;100.00
13800;BME280;6971;50.028;9.258;2023-07-29T07:06:49;98755.28;;;17.75;100.00
13800;BME280;6971;50.028;9.258;2023-07-29T07:11:50;98763.13;;;17.77;100.00
13800;BME280;6971;50.028;9.258;2023-07-29T07:16:50;98752.44;;;17.87;100.00
13800;BME280;6971;50.028;9.258;2023-07-29T07:21:51;98754.16;;;17.78;100.00
13800;BME280;6971;50.028;9.258;2023-07-29T07:26:51;98758.75;;;17.86;100.00
13800;BME280;6971;50.028;9.258;2023-07-29T07:31:53;98761.47;;;18.04;100.00
13800;BME280;6971;50.028;9.258;2023-07-29T07:36:54;98759.00;;;17.93;100.00
13800;BME280;6971;50.028;9.258;2023-07-29T07:41:54;98756.94;;;17.77;100.00
13800;BME280;6971;50.028;9.258;2023-07-29T07:46:55;98762.53;;;17.83;100.00
13800;BME280;6971;50.028;9.258;2023-07-29T07:51:55;98773.41;;;18.00;100.00
13800;BME280;6971;50.028;9.258;2023-07-29T07:56:56;98766.78;;;17.76;100.00
13800;BME280;6971;50.028;9.258;2023-07-29T08:01:57;98771.41;;;17.74;100.00
13800;BME280;6971;50.028;9.258;2023-07-29T08:06:57;98765.66;;;17.79;100.00
13800;BME280;6971;50.028;9.258;2023-07-29T08:11:58;98769.31;;;17.78;100.00
13800;BME280;6971;50.028;9.258;2023-07-29T08:16:58;98785.59;;;17.74;100.00
13800;BME280;6971;50.028;9.258;2023-07-29T08:21:58;98791.69;;;17.85;100.00
13800;BME280;6971;50.028;9.258;2023-07-29T08:26:59;98804.88;;;17.86;100.00
13800;BME280;6971;50.028;9.258;2023-07-29T08:31:59;98805.22;;;17.73;100.00
13800;BME280;6971;50.028;9.258;2023-07-29T08:37:00;98810.22;;;17.86;100.00
13800;BME280;6971;50.028;9.258;2023-07-29T08:42:03;98812.09;;;17.76;100.00
13800;BME280;6971;50.028;9.258;2023-07-29T08:47:07;98811.88;;;17.97;100.00
13800;BME280;6971;50.028;9.258;2023-07-29T08:52:08;98802.63;;;17.92;100.00
13800;BME280;6971;50.028;9.258;2023-07-29T08:57:10;98807.88;;;18.21;100.00
13800;BME280;6971;50.028;9.258;2023-07-29T09:02:11;98806.25;;;18.38;100.00
13800;BME280;6971;50.028;9.258;2023-07-29T09:07:12;98797.31;;;18.58;100.00
13800;BME280;6971;50.028;9.258;2023-07-29T09:12:13;98807.63;;;19.96;100.00
13800;BME280;6971;50.028;9.258;2023-07-29T09:17:14;98805.09;;;20.30;100.00
13800;BME280;6971;50.028;9.258;2023-07-29T09:22:19;98803.63;;;20.35;100.00
13800;BME280;6971;50.028;9.258;2023-07-29T09:27:27;98805.19;;;22.13;100.00
13800;BME280;6971;50.028;9.258;2023-07-29T09:32:28;98801.44;;;21.41;100.00
13800;BME280;6971;50.028;9.258;2023-07-29T09:37:28;98805.22;;;20.71;100.00
13800;BME280;6971;50.028;9.258;2023-07-29T09:42:30;98795.78;;;20.42;100.00
13800;BME280;6971;50.028;9.258;2023-07-29T09:47:31;98808.75;;;21.97;100.00
13800;BME280;6971;50.028;9.258;2023-07-29T09:52:32;98827.81;;;20.77;100.00
13800;BME280;6971;50.028;9.258;2023-07-29T09:57:32;98829.88;;;20.40;100.00
13800;BME280;6971;50.028;9.258;2023-07-29T10:02:33;98823.31;;;20.69;100.00
13800;BME280;6971;50.028;9.258;2023-07-29T10:07:37;98819.38;;;21.07;100.00
13800;BME280;6971;50.028;9.258;2023-07-29T10:12:39;98818.97;;;22.10;100.00
13800;BME280;6971;50.028;9.258;2023-07-29T10:17:40;98827.69;;;22.03;100.00
13800;BME280;6971;50.028;9.258;2023-07-29T10:22:42;98821.72;;;21.02;100.00
13800;BME280;6971;50.028;9.258;2023-07-29T10:27:53;98807.56;;;22.79;100.00
13800;BME280;6971;50.028;9.258;2023-07-29T10:32:58;98803.75;;;22.97;100.00
13800;BME280;6971;50.028;9.258;2023-07-29T10:38:02;98792.53;;;22.70;100.00
13800;BME280;6971;50.028;9.258;2023-07-29T10:43:09;98788.94;;;23.01;100.00
13800;BME280;6971;50.028;9.258;2023-07-29T10:53:33;98779.50;;;23.05;92.17
13800;BME280;6971;50.028;9.258;2023-07-29T10:58:36;98775.13;;;24.42;83.90
13800;BME280;6971;50.028;9.258;2023-07-29T11:03:36;98778.66;;;23.82;82.89
13800;BME280;6971;50.028;9.258;2023-07-29T11:08:36;98797.38;;;24.50;77.66
13800;BME280;6971;50.028;9.258;2023-07-29T11:13:38;98792.06;;;24.57;76.80
13800;BME280;6971;50.028;9.258;2023-07-29T11:18:40;98782.56;;;24.98;79.11
13800;BME280;6971;50.028;9.258;2023-07-29T11:23:42;98779.03;;;25.77;73.38
13800;BME280;6971;50.028;9.258;2023-07-29T11:28:42;98760.34;;;23.47;83.55
13800;BME280;6971;50.028;9.258;2023-07-29T11:33:43;98763.34;;;23.52;84.84
13800;BME280;6971;50.028;9.258;2023-07-29T11:38:44;98748.22;;;23.51;84.01
13800;BME280;6971;50.028;9.258;2023-07-29T11:43:45;98760.16;;;23.33;88.42
13800;BME280;6971;50.028;9.258;2023-07-29T11:48:46;98764.09;;;24.06;79.47
13800;BME280;6971;50.028;9.258;2023-07-29T11:53:47;98764.97;;;24.44;75.69
13800;BME280;6971;50.028;9.258;2023-07-29T11:58:49;98745.25;;;24.06;74.24
13800;BME280;6971;50.028;9.258;2023-07-29T12:03:50;98726.63;;;23.90;77.38
13800;BME280;6971;50.028;9.258;2023-07-29T12:08:52;98720.97;;;24.95;75.05
13800;BME280;6971;50.028;9.258;2023-07-29T12:13:54;98716.78;;;24.27;71.79
13800;BME280;6971;50.028;9.258;2023-07-29T12:18:54;98700.22;;;24.30;77.15
13800;BME280;6971;50.028;9.258;2023-07-29T12:23:55;98692.25;;;23.40;76.28
13800;BME280;6971;50.028;9.258;2023-07-29T12:28:55;98707.03;;;24.11;75.38
13800;BME280;6971;50.028;9.258;2023-07-29T12:33:58;98693.97;;;23.93;74.58
13800;BME280;6971;50.028;9.258;2023-07-29T12:39:01;98695.66;;;23.33;79.07
13800;BME280;6971;50.028;9.258;2023-07-29T12:44:02;98692.91;;;24.09;76.41
13800;BME280;6971;50.028;9.258;2023-07-29T12:49:02;98691.38;;;23.84;68.88
13800;BME280;6971;50.028;9.258;2023-07-29T12:54:06;98709.09;;;24.46;69.57
13800;BME280;6971;50.028;9.258;2023-07-29T12:59:06;98712.66;;;24.53;68.34
13800;BME280;6971;50.028;9.258;2023-07-29T13:04:07;98734.72;;;25.29;66.40
13800;BME280;6971;50.028;9.258;2023-07-29T13:09:07;98711.94;;;25.03;65.81
13800;BME280;6971;50.028;9.258;2023-07-29T13:14:08;98707.91;;;24.33;72.56
13800;BME280;6971;50.028;9.258;2023-07-29T13:19:08;98700.66;;;23.97;80.60
13800;BME280;6971;50.028;9.258;2023-07-29T13:24:09;98702.91;;;23.48;83.25
13800;BME280;6971;50.028;9.258;2023-07-29T13:29:09;98692.47;;;24.05;80.98
13800;BME280;6971;50.028;9.258;2023-07-29T13:34:10;98693.94;;;25.10;71.58
13800;BME280;6971;50.028;9.258;2023-07-29T13:39:10;98695.00;;;24.87;62.61
13800;BME280;6971;50.028;9.258;2023-07-29T13:44:11;98697.47;;;24.67;63.04
13800;BME280;6971;50.028;9.258;2023-07-29T13:49:12;98696.50;;;24.75;67.93
13800;BME280;6971;50.028;9.258;2023-07-29T13:54:12;98705.69;;;23.85;71.87
13800;BME280;6971;50.028;9.258;2023-07-29T13:59:13;98714.84;;;24.43;65.96
13800;BME280;6971;50.028;9.258;2023-07-29T14:04:13;98717.75;;;24.63;60.73
13800;BME280;6971;50.028;9.258;2023-07-29T14:09:14;98714.34;;;24.54;58.50
13800;BME280;6971;50.028;9.258;2023-07-29T14:14:15;98723.34;;;25.05;60.19
13800;BME280;6971;50.028;9.258;2023-07-29T14:19:16;98718.97;;;24.82;54.39
13800;BME280;6971;50.028;9.258;2023-07-29T14:24:16;98712.38;;;25.35;56.29
13800;BME280;6971;50.028;9.258;2023-07-29T14:29:17;98711.47;;;25.57;55.52
13800;BME280;6971;50.028;9.258;2023-07-29T14:34:17;98709.19;;;24.96;53.00
13800;BME280;6971;50.028;9.258;2023-07-29T14:39:17;98716.72;;;25.08;53.30
13800;BME280;6971;50.028;9.258;2023-07-29T14:44:18;98709.28;;;25.10;49.95
13800;BME280;6971;50.028;9.258;2023-07-29T14:49:19;98731.25;;;25.64;49.84
13800;BME280;6971;50.028;9.258;2023-07-29T14:54:20;98721.75;;;25.75;50.86
13800;BME280;6971;50.028;9.258;2023-07-29T14:59:20;98716.19;;;25.48;49.73
13800;BME280;6971;50.028;9.258;2023-07-29T15:04:20;98720.16;;;25.87;52.29
13800;BME280;6971;50.028;9.258;2023-07-29T15:09:21;98704.31;;;25.42;51.91
13800;BME280;6971;50.028;9.258;2023-07-29T15:14:21;98706.41;;;25.11;50.49
13800;BME280;6971;50.028;9.258;2023-07-29T15:19:22;98709.09;;;25.47;52.09
13800;BME280;6971;50.028;9.258;2023-07-29T15:24:22;98715.22;;;25.27;50.22
13800;BME280;6971;50.028;9.258;2023-07-29T15:29:23;98723.44;;;24.75;51.67
13800;BME280;6971;50.028;9.258;2023-07-29T15:34:23;98712.13;;;25.30;51.91
13800;BME280;6971;50.028;9.258;2023-07-29T15:39:25;98723.16;;;25.07;52.10
13800;BME280;6971;50.028;9.258;2023-07-29T15:44:27;98735.19;;;25.11;51.45
13800;BME280;6971;50.028;9.258;2023-07-29T15:49:27;98721.19;;;24.94;52.64
13800;BME280;6971;50.028;9.258;2023-07-29T15:54:27;98730.31;;;24.77;53.68
13800;BME280;6971;50.028;9.258;2023-07-29T15:59:28;98720.72;;;24.90;52.72
13800;BME280;6971;50.028;9.258;2023-07-29T16:04:29;98727.88;;;25.05;54.78
13800;BME280;6971;50.028;9.258;2023-07-29T16:09:30;98737.72;;;25.12;56.62
13800;BME280;6971;50.028;9.258;2023-07-29T16:14:31;98734.91;;;24.99;56.43
13800;BME280;6971;50.028;9.258;2023-07-29T16:19:32;98736.34;;;24.80;54.45
13800;BME280;6971;50.028;9.258;2023-07-29T16:24:32;98718.72;;;24.77;54.70
13800;BME280;6971;50.028;9.258;2023-07-29T16:29:33;98726.69;;;24.85;55.75
13800;BME280;6971;50.028;9.258;2023-07-29T16:34:34;98725.56;;;24.06;55.96
13800;BME280;6971;50.028;9.258;2023-07-29T16:39:35;98733.56;;;24.14;55.77
13800;BME280;6971;50.028;9.258;2023-07-29T16:44:36;98738.34;;;24.12;56.43
13800;BME280;6971;50.028;9.258;2023-07-29T16:49:37;98755.28;;;24.12;57.24
13800;BME280;6971;50.028;9.258;2023-07-29T16:54:38;98764.47;;;24.03;60.94
13800;BME280;6971;50.028;9.258;2023-07-29T16:59:38;98757.38;;;23.42;64.38
13800;BME280;6971;50.028;9.258;2023-07-29T17:04:38;98745.19;;;23.31;63.87
13800;BME280;6971;50.028;9.258;2023-07-29T17:09:39;98751.66;;;23.45;62.84
13800;BME280;6971;50.028;9.258;2023-07-29T17:14:40;98739.25;;;23.44;62.15
13800;BME280;6971;50.028;9.258;2023-07-29T17:19:41;98740.75;;;23.62;63.22
13800;BME280;6971;50.028;9.258;2023-07-29T17:24:42;98742.22;;;23.64;65.06
13800;BME280;6971;50.028;9.258;2023-07-29T17:29:42;98740.44;;;23.41;65.74
13800;BME280;6971;50.028;9.258;2023-07-29T17:34:43;98744.25;;;23.62;64.85
13800;BME280;6971;50.028;9.258;2023-07-29T17:39:44;98740.16;;;23.51;65.07
13800;BME280;6971;50.028;9.258;2023-07-29T17:44:44;98744.34;;;23.39;66.44
13800;BME280;6971;50.028;9.258;2023-07-29T17:49:45;98742.41;;;23.24;71.42
13800;BME280;6971;50.028;9.258;2023-07-29T17:54:45;98752.53;;;22.99;75.18
13800;BME280;6971;50.028;9.258;2023-07-29T17:59:46;98756.06;;;22.76;84.03
13800;BME280;6971;50.028;9.258;2023-07-29T18:04:46;98756.19;;;22.51;89.64
13800;BME280;6971;50.028;9.258;2023-07-29T18:09:47;98753.53;;;22.19;94.13
13800;BME280;6971;50.028;9.258;2023-07-29T18:14:48;98752.81;;;21.85;98.37
13800;BME280;6971;50.028;9.258;2023-07-29T18:19:50;98753.41;;;21.39;100.00
13800;BME280;6971;50.028;9.258;2023-07-29T18:24:50;98759.09;;;21.19;100.00
13800;BME280;6971;50.028;9.258;2023-07-29T18:29:51;98757.78;;;20.90;100.00
13800;BME280;6971;50.028;9.258;2023-07-29T18:34:51;98757.38;;;20.60;100.00
13800;BME280;6971;50.028;9.258;2023-07-29T18:39:52;98759.94;;;20.27;100.00
13800;BME280;6971;50.028;9.258;2023-07-29T18:44:52;98759.78;;;20.28;100.00
13800;BME280;6971;50.028;9.258;2023-07-29T18:49:52;98756.84;;;20.05;100.00
13800;BME280;6971;50.028;9.258;2023-07-29T18:54:53;98757.28;;;19.92;100.00
13800;BME280;6971;50.028;9.258;2023-07-29T18:59:55;98767.88;;;19.75;100.00
13800;BME280;6971;50.028;9.258;2023-07-29T19:04:57;98769.53;;;19.68;100.00
13800;BME280;6971;50.028;9.258;2023-07-29T19:09:57;98772.31;;;19.58;100.00
13800;BME280;6971;50.028;9.258;2023-07-29T19:14:58;98770.38;;;19.42;100.00
13800;BME280;6971;50.028;9.258;2023-07-29T19:19:58;98777.22;;;19.44;100.00
13800;BME280;6971;50.028;9.258;2023-07-29T19:24:59;98782.22;;;19.21;100.00
13800;BME280;6971;50.028;9.258;2023-07-29T19:30:00;98793.13;;;19.10;100.00
13800;BME280;6971;50.028;9.258;2023-07-29T19:35:00;98793.72;;;19.03;100.00
13800;BME280;6971;50.028;9.258;2023-07-29T19:40:01;98798.00;;;18.78;100.00
13800;BME280;6971;50.028;9.258;2023-07-29T19:45:01;98798.34;;;18.65;100.00
13800;BME280;6971;50.028;9.258;2023-07-29T19:50:02;98801.25;;;18.53;100.00
13800;BME280;6971;50.028;9.258;2023-07-29T19:55:03;98805.16;;;18.59;100.00
13800;BME280;6971;50.028;9.258;2023-07-29T20:00:04;98806.84;;;18.60;100.00
13800;BME280;6971;50.028;9.258;2023-07-29T20:05:05;98810.09;;;18.54;100.00
13800;BME280;6971;50.028;9.258;2023-07-29T20:10:07;98805.97;;;18.42;100.00
13800;BME280;6971;50.028;9.258;2023-07-29T20:15:08;98803.06;;;18.35;100.00
13800;BME280;6971;50.028;9.258;2023-07-29T20:20:10;98818.81;;;18.28;100.00
13800;BME280;6971;50.028;9.258;2023-07-29T20:25:11;98816.22;;;18.08;100.00
13800;BME280;6971;50.028;9.258;2023-07-29T20:30:11;98817.19;;;17.97;100.00
13800;BME280;6971;50.028;9.258;2023-07-29T20:35:11;98816.41;;;17.87;100.00
13800;BME280;6971;50.028;9.258;2023-07-29T20:40:12;98810.72;;;17.62;100.00
13800;BME280;6971;50.028;9.258;2023-07-29T20:45:13;98803.00;;;17.59;100.00
13800;BME280;6971;50.028;9.258;2023-07-29T20:50:14;98823.63;;;17.47;100.00
13800;BME280;6971;50.028;9.258;2023-07-29T20:55:15;98835.84;;;17.40;100.00
13800;BME280;6971;50.028;9.258;2023-07-29T21:00:15;98847.19;;;17.42;100.00
13800;BME280;6971;50.028;9.258;2023-07-29T21:05:15;98866.41;;;17.35;100.00
13800;BME280;6971;50.028;9.258;2023-07-29T21:10:16;98867.50;;;17.43;100.00
13800;BME280;6971;50.028;9.258;2023-07-29T21:15:16;98867.19;;;17.75;100.00
13800;BME280;6971;50.028;9.258;2023-07-29T21:20:17;98857.53;;;17.74;100.00
13800;BME280;6971;50.028;9.258;2023-07-29T21:25:17;98829.75;;;17.77;100.00
13800;BME280;6971;50.028;9.258;2023-07-29T21:30:18;98824.88;;;17.63;100.00
13800;BME280;6971;50.028;9.258;2023-07-29T21:35:18;98843.22;;;17.66;100.00
13800;BME280;6971;50.028;9.258;2023-07-29T21:40:19;98864.56;;;17.56;100.00
13800;BME280;6971;50.028;9.258;2023-07-29T21:45:19;98856.97;;;17.71;100.00
13800;BME280;6971;50.028;9.258;2023-07-29T21:50:20;98855.00;;;17.63;100.00
13800;BME280;6971;50.028;9.258;2023-07-29T21:55:20;98853.19;;;17.54;100.00
13800;BME280;6971;50.028;9.258;2023-07-29T22:00:21;98859.25;;;17.46;100.00
13800;BME280;6971;50.028;9.258;2023-07-29T22:05:21;98857.28;;;17.38;100.00
13800;BME280;6971;50.028;9.258;2023-07-29T22:10:22;98855.75;;;17.35;100.00
13800;BME280;6971;50.028;9.258;2023-07-29T22:15:22;98864.59;;;17.26;100.00
13800;BME280;6971;50.028;9.258;2023-07-29T22:20:22;98862.63;;;17.28;100.00
13800;BME280;6971;50.028;9.258;2023-07-29T22:25:23;98852.09;;;17.27;100.00
13800;BME280;6971;50.028;9.258;2023-07-29T22:30:23;98844.97;;;17.27;100.00
13800;BME280;6971;50.028;9.258;2023-07-29T22:35:24;98867.78;;;17.20;100.00
13800;BME280;6971;50.028;9.258;2023-07-29T22:40:24;98861.50;;;17.41;100.00
13800;BME280;6971;50.028;9.258;2023-07-29T22:45:25;98861.63;;;17.29;100.00
13800;BME280;6971;50.028;9.258;2023-07-29T22:50:25;98846.50;;;17.30;100.00
13800;BME280;6971;50.028;9.258;2023-07-29T22:55:26;98842.03;;;17.20;100.00
13800;BME280;6971;50.028;9.258;2023-07-29T23:00:26;98844.94;;;17.07;100.00
13800;BME280;6971;50.028;9.258;2023-07-29T23:05:26;98843.84;;;17.20;100.00
13800;BME280;6971;50.028;9.258;2023-07-29T23:10:27;98851.50;;;17.03;100.00
13800;BME280;6971;50.028;9.258;2023-07-29T23:15:32;98858.25;;;17.07;100.00
13800;BME280;6971;50.028;9.258;2023-07-29T23:20:34;98859.09;;;17.08;100.00
13800;BME280;6971;50.028;9.258;2023-07-29T23:25:34;98871.28;;;17.11;100.00
13800;BME280;6971;50.028;9.258;2023-07-29T23:30:35;98866.97;;;17.09;100.00
13800;BME280;6971;50.028;9.258;2023-07-29T23:35:38;98868.44;;;17.02;100.00
13800;BME280;6971;50.028;9.258;2023-07-29T23:40:38;98861.91;;;17.06;100.00
13800;BME280;6971;50.028;9.258;2023-07-29T23:45:38;98872.00;;;17.13;100.00
13800;BME280;6971;50.028;9.258;2023-07-29T23:50:41;98871.69;;;17.06;100.00
13800;BME280;6971;50.028;9.258;2023-07-29T23:55:41;98865.28;;;17.08;100.00
